Time;durP1;ratioP1;P1;durP2;ratioP2;P2;SDS_P1;SDS_P2;PMS_P1;PMS_P2;Temp;Humidity;BMP_temperature;BMP_pressure;BME280_temperature;BME280_humidity;BME280_pressure;Samples;Min_cycle;Max_cycle;Signal;HPM_P1;HPM_P2
2021/04/17 00:02:02;;;;;;;5.70;2.08;;;;;;;;;;5094863;28;20549;-59
2021/04/17 00:04:30;;;;;;;3.05;2.10;;;;;;;;;;5095203;28;20203;-62
2021/04/17 00:06:57;;;;;;;5.53;2.22;;;;;;;;;;5094432;28;20212;-62
2021/04/17 00:09:24;;;;;;;3.60;2.33;;;;;;;;;;5094738;28;20215;-61
2021/04/17 00:11:52;;;;;;;4.85;2.22;;;;;;;;;;5093981;28;20200;-60
2021/04/17 00:14:21;;;;;;;3.15;2.13;;;;;;;;;;5093547;28;20200;-59
2021/04/17 00:16:48;;;;;;;5.78;2.22;;;;;;;;;;5093232;28;20204;-60
2021/04/17 00:19:14;;;;;;;3.45;2.00;;;;;;;;;;5093338;28;20203;-60
2021/04/17 00:21:41;;;;;;;4.05;2.08;;;;;;;;;;5093427;28;20200;-61
2021/04/17 00:24:08;;;;;;;3.72;2.75;;;;;;;;;;5096018;28;20724;-60
2021/04/17 00:26:35;;;;;;;4.30;2.28;;;;;;;;;;5097622;28;20225;-60
2021/04/17 00:29:03;;;;;;;2.60;2.28;;;;;;;;;;5097148;28;20760;-60
2021/04/17 00:31:30;;;;;;;4.40;2.95;;;;;;;;;;5097107;28;20257;-61
2021/04/17 00:33:57;;;;;;;4.93;2.50;;;;;;;;;;5097090;28;20203;-60
2021/04/17 00:36:24;;;;;;;2.90;2.50;;;;;;;;;;5097422;28;20220;-61
2021/04/17 00:38:51;;;;;;;6.93;2.30;;;;;;;;;;5097368;28;20203;-60
2021/04/17 00:41:18;;;;;;;5.18;3.03;;;;;;;;;;5097281;28;20257;-61
2021/04/17 00:43:44;;;;;;;4.00;2.20;;;;;;;;;;5096984;28;20573;-60
2021/04/17 00:46:12;;;;;;;4.78;2.33;;;;;;;;;;5096830;28;20726;-61
2021/04/17 00:48:40;;;;;;;4.13;2.83;;;;;;;;;;5096895;28;20216;-60
2021/04/17 00:51:07;;;;;;;3.75;2.78;;;;;;;;;;5096878;28;20680;-61
2021/04/17 00:53:34;;;;;;;4.00;2.80;;;;;;;;;;5099035;28;20273;-60
2021/04/17 00:56:04;;;;;;;3.08;2.78;;;;;;;;;;5098934;28;20216;-59
2021/04/17 00:58:30;;;;;;;6.57;3.00;;;;;;;;;;5097941;28;20197;-59
2021/04/17 01:00:57;;;;;;;3.10;2.53;;;;;;;;;;5097297;28;20253;-58
2021/04/17 01:03:26;;;;;;;5.72;2.97;;;;;;;;;;5097023;28;20200;-61
2021/04/17 01:05:56;;;;;;;5.15;2.55;;;;;;;;;;5096625;28;20582;-61
2021/04/17 01:08:30;;;;;;;6.65;2.65;;;;;;;;;;5096741;28;20296;-61
2021/04/17 01:11:00;;;;;;;4.40;2.60;;;;;;;;;;5096779;28;20181;-60
2021/04/17 01:13:27;;;;;;;5.18;2.40;;;;;;;;;;5096458;28;20687;-60
2021/04/17 01:15:54;;;;;;;5.80;2.85;;;;;;;;;;5096848;28;20220;-60
2021/04/17 01:18:23;;;;;;;6.93;2.80;;;;;;;;;;5096939;28;20201;-60
2021/04/17 01:20:52;;;;;;;2.33;2.00;;;;;;;;;;5097747;28;20203;-61
2021/04/17 01:23:20;;;;;;;4.25;2.55;;;;;;;;;;5102342;28;20222;-60
2021/04/17 01:25:48;;;;;;;2.47;2.28;;;;;;;;;;5108641;28;20257;-61
2021/04/17 01:28:16;;;;;;;3.95;2.50;;;;;;;;;;5106365;28;20246;-60
2021/04/17 01:30:43;;;;;;;5.00;2.25;;;;;;;;;;5106264;28;20269;-60
2021/04/17 01:33:10;;;;;;;3.38;2.58;;;;;;;;;;5102619;28;20200;-60
2021/04/17 01:35:37;;;;;;;5.07;2.50;;;;;;;;;;5104264;28;20227;-60
2021/04/17 01:38:07;;;;;;;7.90;2.80;;;;;;;;;;5104818;28;20192;-60
2021/04/17 01:40:34;;;;;;;6.07;2.20;;;;;;;;;;5103788;28;20608;-60
2021/04/17 01:43:02;;;;;;;4.50;2.40;;;;;;;;;;5104957;28;20204;-60
2021/04/17 01:45:30;;;;;;;3.03;2.40;;;;;;;;;;5105191;28;20285;-60
2021/04/17 01:47:58;;;;;;;4.82;2.45;;;;;;;;;;5107089;28;20221;-60
2021/04/17 01:50:26;;;;;;;4.50;2.80;;;;;;;;;;5107929;28;20204;-60
2021/04/17 01:52:53;;;;;;;3.00;2.45;;;;;;;;;;5109261;28;20211;-60
2021/04/17 01:55:20;;;;;;;3.60;2.20;;;;;;;;;;5114151;28;20229;-61
2021/04/17 01:57:48;;;;;;;3.67;2.50;;;;;;;;;;5115646;28;20204;-60
2021/04/17 02:00:16;;;;;;;4.93;2.78;;;;;;;;;;5114690;28;20269;-61
2021/04/17 02:02:43;;;;;;;5.85;2.50;;;;;;;;;;5114299;28;20200;-60
2021/04/17 02:05:10;;;;;;;4.45;2.50;;;;;;;;;;5111333;28;20236;-60
2021/04/17 02:07:37;;;;;;;3.42;2.55;;;;;;;;;;5107408;28;20212;-60
2021/04/17 02:10:04;;;;;;;9.85;2.80;;;;;;;;;;5104882;28;20310;-60
2021/04/17 02:12:31;;;;;;;3.67;2.70;;;;;;;;;;5102350;28;20250;-60
2021/04/17 02:14:58;;;;;;;3.47;2.45;;;;;;;;;;5102550;28;20327;-58
2021/04/17 02:17:30;;;;;;;4.57;2.63;;;;;;;;;;5101977;28;20278;-60
2021/04/17 02:20:01;;;;;;;3.13;2.75;;;;;;;;;;5099152;28;20184;-58
2021/04/17 02:22:28;;;;;;;4.57;2.75;;;;;;;;;;5100477;28;20618;-60
2021/04/17 02:24:55;;;;;;;3.20;2.40;;;;;;;;;;5099850;28;20310;-60
2021/04/17 02:27:22;;;;;;;2.60;2.40;;;;;;;;;;5101081;28;20664;-60
2021/04/17 02:29:50;;;;;;;6.43;2.88;;;;;;;;;;5100760;28;20220;-61
2021/04/17 02:32:17;;;;;;;3.00;2.70;;;;;;;;;;5101740;28;20204;-59
2021/04/17 02:34:45;;;;;;;10.27;2.67;;;;;;;;;;5101384;28;20224;-60
2021/04/17 02:37:12;;;;;;;2.60;2.40;;;;;;;;;;5101541;28;20207;-61
2021/04/17 02:39:39;;;;;;;5.05;2.80;;;;;;;;;;5097707;28;20612;-61
2021/04/17 02:42:06;;;;;;;4.50;2.95;;;;;;;;;;5096087;28;20211;-60
2021/04/17 02:44:33;;;;;;;2.95;2.65;;;;;;;;;;5095758;28;20204;-60
2021/04/17 02:47:00;;;;;;;3.95;3.17;;;;;;;;;;5094841;28;20199;-61
2021/04/17 02:49:27;;;;;;;6.78;3.10;;;;;;;;;;5095425;28;20212;-61
2021/04/17 02:51:54;;;;;;;8.38;3.10;;;;;;;;;;5095203;28;20196;-61
2021/04/17 02:54:21;;;;;;;4.82;3.05;;;;;;;;;;5094887;28;20200;-60
2021/04/17 02:56:48;;;;;;;4.78;2.88;;;;;;;;;;5095498;28;20204;-60
2021/04/17 02:59:15;;;;;;;9.48;3.42;;;;;;;;;;5095997;28;20199;-60
2021/04/17 03:01:42;;;;;;;4.22;3.17;;;;;;;;;;5095646;28;20207;-60
2021/04/17 03:04:08;;;;;;;4.90;2.70;;;;;;;;;;5095160;28;20261;-60
2021/04/17 03:06:35;;;;;;;6.07;3.20;;;;;;;;;;5094728;28;20247;-61
2021/04/17 03:09:03;;;;;;;5.68;3.05;;;;;;;;;;5094831;28;20242;-60
2021/04/17 03:11:30;;;;;;;6.65;3.40;;;;;;;;;;5094810;28;20200;-60
2021/04/17 03:13:56;;;;;;;5.15;3.03;;;;;;;;;;5094642;28;20207;-60
2021/04/17 03:16:23;;;;;;;8.73;3.40;;;;;;;;;;5094242;28;20220;-61
2021/04/17 03:18:50;;;;;;;5.15;3.00;;;;;;;;;;5094235;28;20192;-60
2021/04/17 03:21:16;;;;;;;4.55;3.42;;;;;;;;;;5094039;28;20196;-61
2021/04/17 03:23:43;;;;;;;6.85;3.13;;;;;;;;;;5095917;28;20676;-60
2021/04/17 03:26:11;;;;;;;4.72;2.95;;;;;;;;;;5095786;28;20220;-59
2021/04/17 03:28:38;;;;;;;4.65;3.05;;;;;;;;;;5094981;28;20220;-62
2021/04/17 03:31:05;;;;;;;7.68;3.28;;;;;;;;;;5094437;28;20204;-60
2021/04/17 03:33:32;;;;;;;6.78;3.67;;;;;;;;;;5094509;28;20204;-60
2021/04/17 03:35:58;;;;;;;5.25;3.22;;;;;;;;;;5094241;28;20220;-59
2021/04/17 03:38:25;;;;;;;4.55;2.80;;;;;;;;;;5094347;28;20262;-60
2021/04/17 03:40:52;;;;;;;5.07;2.90;;;;;;;;;;5094290;28;20204;-60
2021/04/17 03:43:19;;;;;;;4.88;3.00;;;;;;;;;;5093961;28;20671;-61
2021/04/17 03:45:46;;;;;;;4.30;2.60;;;;;;;;;;5094013;28;20224;-61
2021/04/17 03:48:13;;;;;;;3.30;3.00;;;;;;;;;;5094057;28;20224;-59
2021/04/17 03:50:40;;;;;;;3.13;2.70;;;;;;;;;;5094159;28;20196;-60
2021/04/17 03:53:06;;;;;;;5.43;3.05;;;;;;;;;;5093962;28;20204;-60
2021/04/17 03:55:33;;;;;;;4.57;2.65;;;;;;;;;;5093890;28;20216;-60
2021/04/17 03:58:00;;;;;;;4.88;2.83;;;;;;;;;;5093320;28;20200;-59
2021/04/17 04:00:28;;;;;;;4.85;3.08;;;;;;;;;;5093464;28;20211;-61
2021/04/17 04:02:54;;;;;;;4.88;2.63;;;;;;;;;;5093899;28;20261;-60
2021/04/17 04:07:59;;;;;;;6.80;3.20;;;;;;;;;;5112123;27;20605;-59
2021/04/17 04:10:26;;;;;;;4.45;3.08;;;;;;;;;;5111255;28;20667;-60
2021/04/17 04:12:53;;;;;;;4.05;2.97;;;;;;;;;;5111211;28;20197;-59
2021/04/17 04:15:19;;;;;;;4.53;3.53;;;;;;;;;;5111062;28;20216;-59
2021/04/17 04:17:46;;;;;;;4.32;3.25;;;;;;;;;;5111059;28;20195;-60
2021/04/17 04:20:13;;;;;;;4.63;3.30;;;;;;;;;;5111145;28;20256;-62
2021/04/17 04:22:42;;;;;;;3.17;2.83;;;;;;;;;;5111184;28;20204;-60
2021/04/17 04:25:10;;;;;;;4.70;3.50;;;;;;;;;;5110817;28;20222;-60
2021/04/17 04:27:37;;;;;;;4.18;3.20;;;;;;;;;;5110912;28;20249;-60
2021/04/17 04:30:05;;;;;;;6.75;3.60;;;;;;;;;;5111087;28;20558;-59
2021/04/17 04:32:32;;;;;;;5.45;3.47;;;;;;;;;;5110603;28;20570;-60
2021/04/17 04:34:59;;;;;;;4.03;3.38;;;;;;;;;;5110414;28;20240;-60
2021/04/17 04:37:26;;;;;;;6.18;3.38;;;;;;;;;;5110597;28;20245;-60
2021/04/17 04:39:52;;;;;;;7.38;3.97;;;;;;;;;;5110508;28;20253;-60
2021/04/17 04:42:20;;;;;;;4.95;3.70;;;;;;;;;;5110854;28;20245;-61
2021/04/17 04:44:47;;;;;;;5.32;3.40;;;;;;;;;;5110400;28;20782;-60
2021/04/17 04:47:14;;;;;;;4.97;4.45;;;;;;;;;;5110325;28;20222;-60
2021/04/17 04:49:40;;;;;;;4.72;3.67;;;;;;;;;;5110260;28;20204;-60
2021/04/17 04:52:07;;;;;;;5.28;4.05;;;;;;;;;;5110496;28;20689;-60
2021/04/17 04:54:34;;;;;;;3.92;3.53;;;;;;;;;;5111175;28;20204;-60
2021/04/17 04:57:01;;;;;;;6.75;4.35;;;;;;;;;;5110639;28;20200;-60
2021/04/17 04:59:28;;;;;;;5.75;3.60;;;;;;;;;;5110434;28;20226;-60
2021/04/17 05:01:55;;;;;;;6.97;4.20;;;;;;;;;;5110092;28;20253;-61
2021/04/17 05:04:22;;;;;;;5.13;3.40;;;;;;;;;;5110204;28;20710;-59
2021/04/17 05:06:48;;;;;;;4.88;3.80;;;;;;;;;;5109774;28;20226;-59
2021/04/17 05:09:15;;;;;;;5.90;3.47;;;;;;;;;;5110479;28;20200;-61
2021/04/17 05:11:42;;;;;;;6.05;3.75;;;;;;;;;;5110679;28;20199;-61
2021/04/17 05:14:09;;;;;;;6.25;4.10;;;;;;;;;;5111470;28;20330;-61
2021/04/17 05:16:36;;;;;;;7.78;4.15;;;;;;;;;;5110466;28;20261;-60
2021/04/17 05:19:03;;;;;;;7.78;4.68;;;;;;;;;;5098608;28;20670;-59
2021/04/17 05:21:30;;;;;;;5.20;4.43;;;;;;;;;;5096761;28;20680;-60
2021/04/17 05:23:57;;;;;;;7.22;4.25;;;;;;;;;;5097086;28;20216;-61
2021/04/17 05:26:23;;;;;;;5.22;3.95;;;;;;;;;;5096901;28;20220;-60
2021/04/17 05:28:50;;;;;;;5.50;4.22;;;;;;;;;;5096668;28;20571;-60
2021/04/17 05:31:17;;;;;;;6.03;4.30;;;;;;;;;;5096412;28;20677;-60
2021/04/17 05:33:45;;;;;;;7.20;4.50;;;;;;;;;;5096526;28;20674;-60
2021/04/17 05:36:11;;;;;;;9.80;4.57;;;;;;;;;;5096206;28;20239;-60
2021/04/17 05:38:38;;;;;;;5.90;4.55;;;;;;;;;;5096120;28;20225;-60
2021/04/17 05:41:05;;;;;;;6.85;4.70;;;;;;;;;;5096104;28;20213;-60
2021/04/17 05:43:32;;;;;;;8.23;5.10;;;;;;;;;;5096072;28;20572;-60
2021/04/17 05:45:58;;;;;;;9.32;4.82;;;;;;;;;;5095681;28;20357;-58
2021/04/17 05:48:25;;;;;;;6.18;5.07;;;;;;;;;;5095870;28;20675;-60
2021/04/17 05:50:53;;;;;;;6.53;4.95;;;;;;;;;;5095762;28;20208;-60
2021/04/17 05:53:20;;;;;;;5.53;5.00;;;;;;;;;;5096029;28;20269;-60
2021/04/17 05:55:46;;;;;;;5.45;4.65;;;;;;;;;;5096938;28;20576;-60
2021/04/17 05:58:13;;;;;;;6.85;5.18;;;;;;;;;;5098225;28;20575;-60
2021/04/17 06:00:40;;;;;;;9.10;5.35;;;;;;;;;;5097112;28;20741;-60
2021/04/17 06:03:07;;;;;;;5.72;5.10;;;;;;;;;;5097486;28;20690;-61
2021/04/17 06:05:34;;;;;;;6.88;5.45;;;;;;;;;;5097433;28;20228;-60
2021/04/17 06:08:01;;;;;;;8.20;5.65;;;;;;;;;;5096340;28;20704;-59
2021/04/17 06:10:28;;;;;;;6.28;5.68;;;;;;;;;;5096252;28;20200;-61
2021/04/17 06:12:55;;;;;;;7.07;4.93;;;;;;;;;;5095356;28;20200;-60
2021/04/17 06:15:21;;;;;;;6.03;5.28;;;;;;;;;;5095306;28;20247;-61
2021/04/17 06:17:48;;;;;;;8.18;5.45;;;;;;;;;;5095354;28;20211;-59
2021/04/17 06:20:15;;;;;;;7.35;5.63;;;;;;;;;;5094866;28;20666;-60
2021/04/17 06:22:42;;;;;;;5.80;4.88;;;;;;;;;;5095300;28;20200;-60
2021/04/17 06:25:11;;;;;;;8.82;5.90;;;;;;;;;;5095018;28;20272;-60
2021/04/17 06:27:38;;;;;;;7.57;5.50;;;;;;;;;;5094669;28;20285;-61
2021/04/17 06:30:05;;;;;;;11.68;5.63;;;;;;;;;;5094163;28;20210;-61
2021/04/17 06:32:32;;;;;;;12.32;6.55;;;;;;;;;;5095144;28;20253;-60
2021/04/17 06:34:59;;;;;;;6.05;5.00;;;;;;;;;;5095602;28;20216;-59
2021/04/17 06:37:25;;;;;;;5.93;5.43;;;;;;;;;;5095250;28;20192;-60
2021/04/17 06:39:52;;;;;;;10.48;5.95;;;;;;;;;;5095653;28;20211;-61
2021/04/17 06:42:21;;;;;;;15.50;6.13;;;;;;;;;;5095228;28;20203;-61
2021/04/17 06:44:48;;;;;;;7.78;5.57;;;;;;;;;;5094682;28;20739;-61
2021/04/17 06:47:16;;;;;;;6.90;5.63;;;;;;;;;;5094417;28;20691;-62
2021/04/17 06:49:43;;;;;;;7.03;5.80;;;;;;;;;;5094204;28;20235;-62
2021/04/17 06:52:11;;;;;;;7.43;5.03;;;;;;;;;;5094489;28;20197;-61
2021/04/17 06:54:38;;;;;;;6.95;5.38;;;;;;;;;;5094335;28;20209;-61
2021/04/17 06:57:05;;;;;;;6.47;5.35;;;;;;;;;;5094332;28;20203;-61
2021/04/17 06:59:33;;;;;;;6.75;5.35;;;;;;;;;;5094577;28;20278;-60
2021/04/17 07:02:00;;;;;;;11.95;5.43;;;;;;;;;;5094357;28;20204;-60
2021/04/17 07:04:27;;;;;;;6.13;5.00;;;;;;;;;;5094407;28;20208;-61
2021/04/17 07:06:54;;;;;;;6.63;5.47;;;;;;;;;;5094341;28;20227;-61
2021/04/17 07:09:21;;;;;;;6.88;5.60;;;;;;;;;;5094632;28;20254;-62
2021/04/17 07:11:48;;;;;;;6.95;5.80;;;;;;;;;;5094676;28;20227;-62
2021/04/17 07:14:16;;;;;;;9.15;6.05;;;;;;;;;;5094519;28;20576;-60
2021/04/17 07:16:56;;;;;;;6.72;5.60;;;;;;;;;;5105136;28;20223;-61
2021/04/17 07:19:23;;;;;;;7.18;5.60;;;;;;;;;;5104212;28;20201;-61
2021/04/17 07:21:50;;;;;;;8.10;6.68;;;;;;;;;;5094971;28;20254;-61
2021/04/17 07:24:26;;;;;;;7.63;6.55;;;;;;;;;;5093876;28;20211;-60
2021/04/17 07:26:53;;;;;;;7.63;6.13;;;;;;;;;;5093690;28;20760;-62
2021/04/17 07:29:20;;;;;;;9.90;6.30;;;;;;;;;;5094250;28;20250;-61
2021/04/17 07:31:51;;;;;;;9.05;6.07;;;;;;;;;;5093975;28;20206;-60
2021/04/17 07:34:20;;;;;;;9.45;5.93;;;;;;;;;;5094339;28;20232;-60
2021/04/17 07:36:56;;;;;;;7.75;5.95;;;;;;;;;;5093789;28;20200;-60
2021/04/17 07:39:48;;;;;;;7.25;5.55;;;;;;;;;;5093970;28;20187;-61
2021/04/17 07:42:15;;;;;;;6.72;6.00;;;;;;;;;;5078935;28;20200;-60
2021/04/17 07:44:43;;;;;;;11.38;5.55;;;;;;;;;;5094015;28;20277;-62
2021/04/17 07:47:10;;;;;;;7.40;5.40;;;;;;;;;;5093668;28;20220;-61
2021/04/17 07:49:39;;;;;;;7.53;5.90;;;;;;;;;;5093567;28;20582;-60
2021/04/17 07:52:09;;;;;;;7.45;6.18;;;;;;;;;;5095570;28;20208;-60
2021/04/17 07:54:36;;;;;;;8.90;6.05;;;;;;;;;;5093557;28;20193;-60
2021/04/17 07:57:10;;;;;;;7.40;5.03;;;;;;;;;;5093905;28;20193;-61
2021/04/17 07:59:37;;;;;;;5.93;5.25;;;;;;;;;;5097472;28;20210;-61
2021/04/17 08:02:04;;;;;;;7.40;5.60;;;;;;;;;;5105632;28;20212;-65
2021/04/17 08:04:32;;;;;;;7.50;6.10;;;;;;;;;;5096450;28;20211;-61
2021/04/17 08:07:01;;;;;;;6.53;5.70;;;;;;;;;;5094765;28;20220;-59
2021/04/17 08:09:28;;;;;;;9.93;5.40;;;;;;;;;;5096358;28;20216;-61
2021/04/17 08:11:56;;;;;;;8.07;5.78;;;;;;;;;;5094532;28;20692;-60
2021/04/17 08:14:24;;;;;;;10.93;5.50;;;;;;;;;;5094435;28;20212;-61
2021/04/17 08:16:52;;;;;;;11.18;5.55;;;;;;;;;;5096187;28;20205;-61
2021/04/17 08:19:19;;;;;;;7.70;6.25;;;;;;;;;;5095687;28;20204;-61
2021/04/17 08:21:46;;;;;;;7.25;5.82;;;;;;;;;;5096818;28;20254;-61
2021/04/17 08:24:14;;;;;;;6.70;5.50;;;;;;;;;;5098060;28;20208;-61
2021/04/17 08:26:41;;;;;;;7.97;5.03;;;;;;;;;;5104933;28;20224;-60
2021/04/17 08:29:08;;;;;;;8.85;5.65;;;;;;;;;;5104232;28;20279;-61
2021/04/17 08:31:36;;;;;;;8.10;5.30;;;;;;;;;;5102395;28;20207;-61
2021/04/17 08:34:07;;;;;;;7.85;5.28;;;;;;;;;;5098186;28;20292;-61
2021/04/17 08:36:34;;;;;;;7.65;5.63;;;;;;;;;;5094091;28;20636;-61
2021/04/17 08:39:01;;;;;;;5.45;4.95;;;;;;;;;;5093805;28;20200;-61
2021/04/17 08:41:38;;;;;;;5.10;4.60;;;;;;;;;;5093398;28;20202;-61
2021/04/17 08:44:20;;;;;;;6.45;5.20;;;;;;;;;;5093111;28;20201;-60
2021/04/17 08:46:47;;;;;;;9.23;5.18;;;;;;;;;;5093106;28;20217;-60
2021/04/17 08:49:20;;;;;;;6.95;5.70;;;;;;;;;;5093146;28;20200;-61
2021/04/17 08:51:47;;;;;;;6.00;5.40;;;;;;;;;;5093536;28;20189;-61
2021/04/17 08:54:15;;;;;;;7.47;5.80;;;;;;;;;;5096049;28;20211;-61
2021/04/17 08:56:47;;;;;;;7.60;5.80;;;;;;;;;;5097056;28;20221;-61
2021/04/17 08:59:14;;;;;;;10.20;4.95;;;;;;;;;;5097308;28;20205;-61
2021/04/17 09:01:41;;;;;;;6.78;5.45;;;;;;;;;;5096730;28;20611;-60
2021/04/17 09:04:09;;;;;;;7.75;5.40;;;;;;;;;;5097000;28;20199;-60
2021/04/17 09:06:40;;;;;;;5.20;4.70;;;;;;;;;;5096700;28;20247;-61
2021/04/17 09:09:26;;;;;;;6.03;4.80;;;;;;;;;;5097912;28;20219;-59
2021/04/17 09:11:54;;;;;;;8.15;5.15;;;;;;;;;;5097817;28;20200;-61
2021/04/17 09:14:39;;;;;;;6.90;5.25;;;;;;;;;;5096803;28;20205;-62
2021/04/17 09:17:07;;;;;;;6.38;5.38;;;;;;;;;;5096273;28;20197;-61
2021/04/17 09:19:51;;;;;;;7.70;5.25;;;;;;;;;;5097544;28;20200;-61
2021/04/17 09:22:37;;;;;;;8.85;5.70;;;;;;;;;;5096435;28;20188;-61
2021/04/17 09:25:04;;;;;;;7.55;5.00;;;;;;;;;;5096676;28;20220;-60
2021/04/17 09:27:33;;;;;;;7.95;5.32;;;;;;;;;;5095907;28;20212;-61
2021/04/17 09:30:00;;;;;;;9.43;5.13;;;;;;;;;;5096283;28;20201;-60
2021/04/17 09:32:31;;;;;;;8.82;4.45;;;;;;;;;;5096395;28;20212;-61
2021/04/17 09:34:58;;;;;;;5.80;4.17;;;;;;;;;;5096244;28;20223;-60
2021/04/17 09:37:26;;;;;;;5.43;4.50;;;;;;;;;;5096693;28;20541;-60
2021/04/17 09:39:53;;;;;;;6.15;4.90;;;;;;;;;;5095889;28;20226;-61
2021/04/17 09:42:29;;;;;;;6.93;4.45;;;;;;;;;;5095907;28;20206;-61
2021/04/17 09:44:57;;;;;;;6.20;4.25;;;;;;;;;;5096388;28;20233;-61
2021/04/17 09:47:23;;;;;;;3.80;3.20;;;;;;;;;;5096049;28;20218;-61
2021/04/17 09:49:51;;;;;;;7.90;3.58;;;;;;;;;;5096269;28;20208;-60
2021/04/17 09:52:19;;;;;;;6.53;3.38;;;;;;;;;;5095450;28;20204;-61
2021/04/17 09:54:46;;;;;;;4.85;3.85;;;;;;;;;;5095888;28;20288;-61
2021/04/17 09:57:13;;;;;;;5.03;3.60;;;;;;;;;;5095897;28;20224;-62
2021/04/17 09:59:51;;;;;;;6.23;3.80;;;;;;;;;;5095526;28;20446;-60
2021/04/17 10:02:19;;;;;;;5.77;3.77;;;;;;;;;;5095851;28;20516;-60
2021/04/17 10:04:55;;;;;;;5.73;3.60;;;;;;;;;;5097393;28;20472;-62
2021/04/17 10:07:22;;;;;;;4.30;3.80;;;;;;;;;;5102016;28;20486;-60
2021/04/17 10:09:59;;;;;;;4.80;3.53;;;;;;;;;;5102054;28;20521;-61
2021/04/17 10:12:26;;;;;;;5.60;4.23;;;;;;;;;;5097012;28;20440;-61
2021/04/17 10:14:53;;;;;;;5.83;3.03;;;;;;;;;;5095557;28;21000;-62
2021/04/17 10:17:21;;;;;;;5.13;2.87;;;;;;;;;;5098544;28;20447;-61
2021/04/17 10:19:48;;;;;;;5.43;3.23;;;;;;;;;;5107140;28;20450;-61
2021/04/17 10:22:14;;;;;;;7.00;3.50;;;;;;;;;;5111527;28;20439;-62
2021/04/17 10:24:42;;;;;;;5.00;3.33;;;;;;;;;;5112446;28;20831;-61
2021/04/17 10:27:10;;;;;;;4.70;3.30;;;;;;;;;;5107057;28;20471;-61
2021/04/17 10:29:39;;;;;;;3.53;3.23;;;;;;;;;;5099351;28;20531;-61
2021/04/17 10:32:07;;;;;;;3.50;3.20;;;;;;;;;;5095993;28;20455;-62
2021/04/17 10:34:34;;;;;;;4.23;3.53;;;;;;;;;;5095452;28;20443;-61
2021/04/17 10:37:02;;;;;;;5.70;3.57;;;;;;;;;;5094639;28;20436;-61
2021/04/17 10:39:29;;;;;;;5.47;3.20;;;;;;;;;;5094920;28;20448;-62
2021/04/17 10:42:00;;;;;;;4.03;2.47;;;;;;;;;;5095781;28;20449;-61
2021/04/17 10:44:27;;;;;;;4.23;2.90;;;;;;;;;;5094503;28;20543;-61
2021/04/17 10:46:54;;;;;;;4.20;2.90;;;;;;;;;;5094789;28;20480;-61
2021/04/17 10:49:28;;;;;;;5.13;3.27;;;;;;;;;;5094918;28;20474;-61
2021/04/17 10:51:55;;;;;;;3.93;2.53;;;;;;;;;;5094781;28;20822;-62
2021/04/17 10:54:22;;;;;;;3.40;2.70;;;;;;;;;;5094286;28;20472;-60
2021/04/17 10:57:00;;;;;;;2.97;2.60;;;;;;;;;;5095206;28;20527;-61
2021/04/17 10:59:27;;;;;;;6.60;2.87;;;;;;;;;;5095426;28;20461;-61
2021/04/17 11:01:54;;;;;;;3.60;2.80;;;;;;;;;;5096075;28;20502;-60
2021/04/17 11:04:21;;;;;;;3.73;2.90;;;;;;;;;;5098253;28;20542;-59
2021/04/17 11:06:48;;;;;;;3.60;2.97;;;;;;;;;;5097704;28;20487;-61
2021/04/17 11:09:17;;;;;;;6.83;3.47;;;;;;;;;;5098285;28;20469;-60
2021/04/17 11:11:54;;;;;;;4.20;3.70;;;;;;;;;;5095819;28;20451;-61
2021/04/17 11:14:22;;;;;;;5.23;3.27;;;;;;;;;;5095761;28;20916;-61
2021/04/17 11:16:51;;;;;;;4.50;3.27;;;;;;;;;;5095148;28;20446;-61
2021/04/17 11:19:25;;;;;;;3.87;2.97;;;;;;;;;;5096315;28;20448;-62
2021/04/17 11:22:13;;;;;;;3.53;2.93;;;;;;;;;;5095417;28;20449;-61
2021/04/17 11:24:41;;;;;;;7.30;3.63;;;;;;;;;;5090764;28;20472;-62
2021/04/17 11:27:08;;;;;;;3.30;2.97;;;;;;;;;;5095290;28;20986;-61
2021/04/17 11:29:35;;;;;;;4.60;3.27;;;;;;;;;;5094922;28;20918;-60
2021/04/17 11:32:02;;;;;;;5.03;3.20;;;;;;;;;;5095376;28;20940;-60
2021/04/17 11:34:29;;;;;;;5.03;3.00;;;;;;;;;;5095587;28;20920;-61
2021/04/17 11:36:56;;;;;;;6.57;3.20;;;;;;;;;;5094569;28;20849;-61
2021/04/17 11:39:22;;;;;;;5.60;4.10;;;;;;;;;;5096426;28;20444;-60
2021/04/17 11:41:50;;;;;;;6.77;4.37;;;;;;;;;;5094546;28;20451;-61
2021/04/17 11:44:17;;;;;;;5.67;4.00;;;;;;;;;;5094836;28;20444;-60
2021/04/17 11:46:44;;;;;;;5.13;3.13;;;;;;;;;;5094057;28;20486;-61
2021/04/17 11:49:10;;;;;;;4.47;3.30;;;;;;;;;;5094789;28;20558;-61
2021/04/17 11:51:37;;;;;;;4.03;3.67;;;;;;;;;;5094770;28;20441;-61
2021/04/17 11:54:04;;;;;;;4.40;2.80;;;;;;;;;;5094035;28;20527;-61
2021/04/17 11:56:30;;;;;;;5.60;4.03;;;;;;;;;;5094215;28;20460;-59
2021/04/17 11:58:58;;;;;;;5.33;3.23;;;;;;;;;;5094207;28;20453;-61
2021/04/17 12:01:25;;;;;;;4.63;3.00;;;;;;;;;;5093903;28;20445;-60
2021/04/17 12:03:52;;;;;;;5.70;3.30;;;;;;;;;;5095754;28;20452;-60
2021/04/17 12:06:18;;;;;;;4.83;3.43;;;;;;;;;;5095499;28;20482;-59
2021/04/17 12:08:45;;;;;;;6.23;3.47;;;;;;;;;;5094500;28;20505;-60
2021/04/17 12:11:12;;;;;;;6.80;5.23;;;;;;;;;;5093468;28;21042;-62
2021/04/17 12:13:39;;;;;;;4.70;3.20;;;;;;;;;;5094857;28;20445;-60
2021/04/17 12:16:07;;;;;;;4.73;3.67;;;;;;;;;;5097056;28;20468;-61
2021/04/17 12:18:34;;;;;;;6.13;3.60;;;;;;;;;;5095647;28;20452;-61
2021/04/17 12:21:01;;;;;;;3.70;2.97;;;;;;;;;;5093903;28;20444;-61
2021/04/17 12:23:27;;;;;;;8.03;4.20;;;;;;;;;;5094183;28;20815;-62
2021/04/17 12:25:54;;;;;;;5.47;2.90;;;;;;;;;;5093857;28;20464;-60
2021/04/17 12:28:21;;;;;;;4.50;3.53;;;;;;;;;;5095735;28;20883;-61
2021/04/17 12:30:48;;;;;;;5.37;3.10;;;;;;;;;;5098993;28;20777;-60
2021/04/17 12:33:15;;;;;;;5.23;3.50;;;;;;;;;;5097758;28;20869;-61
2021/04/17 12:35:43;;;;;;;3.90;3.27;;;;;;;;;;5099236;28;20559;-62
2021/04/17 12:38:10;;;;;;;4.47;2.97;;;;;;;;;;5098507;28;20448;-60
2021/04/17 12:40:37;;;;;;;3.50;3.20;;;;;;;;;;5098125;28;20449;-61
2021/04/17 12:43:04;;;;;;;4.87;2.90;;;;;;;;;;5097749;28;20448;-61
2021/04/17 12:45:31;;;;;;;4.70;2.87;;;;;;;;;;5099074;28;20472;-60
2021/04/17 12:47:58;;;;;;;5.77;2.80;;;;;;;;;;5097622;28;20526;-60
2021/04/17 12:50:26;;;;;;;4.57;3.00;;;;;;;;;;5097839;28;20452;-61
2021/04/17 12:52:53;;;;;;;3.97;2.40;;;;;;;;;;5097635;28;20536;-59
2021/04/17 12:55:20;;;;;;;5.57;3.00;;;;;;;;;;5097838;28;20475;-61
2021/04/17 12:57:47;;;;;;;3.03;2.57;;;;;;;;;;5098087;28;20451;-60
2021/04/17 13:00:15;;;;;;;4.27;3.10;;;;;;;;;;5098733;28;20940;-62
2021/04/17 13:02:41;;;;;;;3.87;2.83;;;;;;;;;;5097202;28;20967;-63
2021/04/17 13:05:09;;;;;;;4.80;2.77;;;;;;;;;;5097012;28;20803;-62
2021/04/17 13:07:36;;;;;;;3.90;3.37;;;;;;;;;;5097759;28;20488;-62
2021/04/17 13:10:03;;;;;;;5.27;3.20;;;;;;;;;;5096611;28;20935;-60
2021/04/17 13:12:30;;;;;;;4.70;2.60;;;;;;;;;;5096141;28;20448;-61
2021/04/17 13:14:57;;;;;;;5.10;2.70;;;;;;;;;;5096343;28;20460;-60
2021/04/17 13:17:24;;;;;;;5.30;2.70;;;;;;;;;;5096759;28;20436;-61
2021/04/17 13:19:50;;;;;;;5.20;2.73;;;;;;;;;;5096385;28;20452;-62
2021/04/17 13:22:17;;;;;;;4.20;2.87;;;;;;;;;;5096216;28;20440;-62
2021/04/17 13:24:45;;;;;;;4.93;2.30;;;;;;;;;;5097064;28;20459;-61
2021/04/17 13:27:12;;;;;;;3.70;2.13;;;;;;;;;;5097962;28;20479;-62
2021/04/17 13:29:39;;;;;;;4.40;2.50;;;;;;;;;;5099388;28;20962;-61
2021/04/17 13:32:06;;;;;;;3.33;2.30;;;;;;;;;;5099164;28;20998;-61
2021/04/17 13:34:32;;;;;;;3.00;2.70;;;;;;;;;;5099286;28;20497;-61
2021/04/17 13:36:59;;;;;;;3.93;2.10;;;;;;;;;;5100256;28;20498;-60
2021/04/17 13:39:26;;;;;;;3.03;1.90;;;;;;;;;;5097786;28;20444;-60
2021/04/17 13:41:54;;;;;;;2.20;2.00;;;;;;;;;;5097903;28;20501;-62
2021/04/17 13:44:20;;;;;;;2.67;2.10;;;;;;;;;;5096775;28;20448;-60
2021/04/17 13:46:47;;;;;;;2.90;1.80;;;;;;;;;;5096946;28;20475;-61
2021/04/17 13:49:14;;;;;;;5.77;2.40;;;;;;;;;;5097326;28;20518;-61
2021/04/17 13:51:41;;;;;;;3.60;2.53;;;;;;;;;;5097208;28;20459;-61
2021/04/17 13:54:07;;;;;;;3.50;2.50;;;;;;;;;;5096717;28;20533;-62
2021/04/17 13:56:34;;;;;;;4.10;2.50;;;;;;;;;;5095941;28;20558;-61
2021/04/17 13:59:02;;;;;;;4.70;3.30;;;;;;;;;;5096287;28;20453;-61
2021/04/17 14:01:29;;;;;;;4.17;2.10;;;;;;;;;;5095826;28;20933;-61
2021/04/17 14:03:55;;;;;;;6.43;2.50;;;;;;;;;;5095974;28;20456;-61
2021/04/17 14:06:22;;;;;;;4.97;2.13;;;;;;;;;;5095943;28;20476;-62
2021/04/17 14:08:49;;;;;;;2.70;2.10;;;;;;;;;;5096235;28;20485;-59
2021/04/17 14:11:15;;;;;;;5.40;2.10;;;;;;;;;;5097302;28;20488;-61
2021/04/17 14:13:42;;;;;;;3.80;2.27;;;;;;;;;;5097443;28;20817;-61
2021/04/17 14:16:10;;;;;;;4.20;2.00;;;;;;;;;;5100436;28;20844;-62
2021/04/17 14:18:37;;;;;;;3.50;2.13;;;;;;;;;;5111531;28;20440;-61
2021/04/17 14:21:03;;;;;;;3.53;2.17;;;;;;;;;;5106781;28;20493;-62
2021/04/17 14:23:30;;;;;;;3.00;2.07;;;;;;;;;;5097589;28;20443;-61
2021/04/17 14:25:57;;;;;;;3.83;2.80;;;;;;;;;;5095876;28;20464;-60
2021/04/17 14:28:24;;;;;;;4.33;2.93;;;;;;;;;;5095048;28;20487;-61
2021/04/17 14:30:51;;;;;;;2.60;2.40;;;;;;;;;;5094955;28;20445;-60
2021/04/17 14:33:18;;;;;;;4.77;3.87;;;;;;;;;;5095270;28;20548;-60
2021/04/17 14:35:45;;;;;;;3.57;2.83;;;;;;;;;;5095129;28;20465;-60
2021/04/17 14:38:12;;;;;;;3.60;2.97;;;;;;;;;;5095559;28;20453;-61
2021/04/17 14:40:39;;;;;;;3.87;2.53;;;;;;;;;;5095711;28;20452;-61
2021/04/17 14:43:05;;;;;;;3.97;2.70;;;;;;;;;;5094598;28;20444;-60
2021/04/17 14:45:32;;;;;;;4.60;2.97;;;;;;;;;;5094743;28;20512;-59
2021/04/17 14:47:59;;;;;;;4.10;2.47;;;;;;;;;;5094703;28;20475;-61
2021/04/17 14:50:26;;;;;;;4.60;2.90;;;;;;;;;;5094138;28;20449;-60